LTBA METAR and TAF | Updated Today

LTBA METAR

Atatürk International Airport

Observation time: 12 min. ago

LTBA 292050Z 21003KT 180V260 CAVOK 22/18 Q1012 RMK RWY23 20004KT

Need help? Read our tutorial on how to read METARs or read the parsed version below.

Atatürk International Airport (LTBA) METAR

  • Weather conditions on Thu, 29 Sep 2022 20:50:00 +0000 (12 min. ago):
  • Present conditions: Dry
  • Clouds: Clear skies
  • Visibility: Greater than 10 km
  • Wind: 210 degrees at 3 knots
  • Temperature: 22 celsius
  • Dew point: 18 celsius
  • Pressure: 1012 millibars
  • Remarks: RWY23 20004KT


Useful to know...

LTBA TAF

Atatürk International Airport

TAF LTBA 291640Z 2918/3018 VRB02KT CAVOK BECMG 3003/3006 21012KT BECMG 3014/3017 VRB02KT
Observation time: 4:22 hr. ago
Need help? Read our tutorial on how to read TAFs or read the parsed version below.

Parsed version of TAF for Atatürk International Airport (LTBA)

  • From 29 September at 18:00 UTC, to day 30 of the month at 18:00 UTC
  • Visibility: Greater than 10 km
  • Wind: Variable at 2
  • Expected to arise soon, from 30 September at 03:00 UTC, to day 30 of the month at 06:00 UTC
  • Wind: 210 degrees at 12
  • Expected to arise soon, from 30 September at 14:00 UTC, to day 30 of the month at 17:00 UTC
  • Wind: Variable at 2